CST,Max TemperatureF,Mean TemperatureF,Min TemperatureF,Max Dew PointF,MeanDew PointF,Min DewpointF,Max Humidity, Mean Humidity, Min Humidity, Max Sea Level PressureIn, Mean Sea Level PressureIn, Min Sea Level PressureIn, Max VisibilityMiles, Mean VisibilityMiles, Min VisibilityMiles, Max Wind SpeedMPH, Mean Wind SpeedMPH, Max Gust SpeedMPH,PrecipitationIn, CloudCover, Events, WindDirDegrees
2013-1-1,28,20,12,27,20,9,100,87,74,30.15,30.11,30.04,10,8,3,10,7,,0.00,3,,306
2013-1-2,21,11,1,10,5,0,92,75,54,30.24,30.18,30.14,10,10,10,9,6,,0.00,0,,241
2013-1-3,28,20,12,25,15,3,86,75,53,30.27,30.20,30.15,10,10,7,22,12,26,0.00,5,,251
2013-1-4,26,20,14,21,16,10,93,80,69,30.30,30.26,30.24,10,10,9,24,13,30,0.00,0,,249
2013-1-5,35,25,15,30,23,14,100,84,70,30.29,30.20,30.05,10,9,2,20,11,25,0.00,2,,214
2013-1-6,35,30,24,32,25,19,93,83,75,30.34,30.11,29.97,10,9,4,25,16,31,0.00,8,,262
2013-1-7,33,22,10,27,20,10,100,84,70,30.41,30.30,30.17,10,8,2,20,8,21,0.00,0,,203
2013-1-8,37,29,21,30,24,18,93,81,70,30.25,30.19,30.13,10,9,5,15,9,,0.00,0,,187
2013-1-9,44,37,30,36,32,21,93,76,65,30.51,30.30,30.12,10,10,10,22,14,25,0.00,2,,252
2013-1-10,41,34,26,39,30,23,100,85,75,30.50,30.32,30.00,10,9,4,17,7,22,0.07,3,,116
2013-1-11,57,50,42,54,47,39,100,87,72,29.99,29.86,29.76,10,10,5,23,13,29,0.51,4,,198
2013-1-12,60,54,48,54,50,45,100,86,72,29.96,29.88,29.71,10,9,3,15,11,21,1.01,2,,207
2013-1-13,48,34,21,46,32,16,100,91,80,30.21,29.95,29.73,10,7,1,25,15,30,0.87,8,,320
2013-1-14,21,18,15,18,15,10,93,82,68,30.44,30.37,30.22,10,10,5,18,10,24,0.00,5,,338
2013-1-15,28,22,17,23,18,12,100,81,64,30.39,30.29,30.08,10,9,5,15,7,18,0.00,1,,59
2013-1-16,35,28,21,27,22,18,100,77,52,30.07,30.01,29.93,10,9,3,21,7,22,0.00,3,,261
2013-1-17,37,29,19,28,22,14,100,75,52,30.40,30.23,30.06,10,9,5,18,9,24,0.00,1,,301
2013-1-18,39,29,19,25,20,14,86,67,49,30.45,30.30,30.07,10,10,10,28,12,39,0.00,0,,214
2013-1-19,48,42,37,36,30,25,76,63,50,30.08,29.94,29.83,10,10,10,29,23,36,0.00,0,,230
2013-1-20,39,29,19,28,12,7,70,60,50,30.25,30.16,29.89,10,10,10,40,21,51,0.00,1,,296
2013-1-21,19,12,6,10,3,-6,79,62,48,30.24,30.15,30.10,10,9,0,31,19,38,0.00,5,,289
2013-1-22,14,8,3,1,-1,-2,85,64,49,30.36,30.30,30.23,10,10,6,20,15,24,0.00,2,,289
2013-1-23,21,16,10,14,5,0,80,63,49,30.32,30.21,30.08,10,10,9,20,10,33,0.00,6,,265
2013-1-24,21,13,5,14,8,1,92,71,53,30.59,30.45,30.19,10,9,1,18,10,23,0.00,1,,61
2013-1-25,26,22,17,21,16,9,93,78,63,30.37,30.12,30.01,10,9,1,15,10,18,0.00,6,,204
2013-1-26,28,20,12,19,15,7,93,75,59,30.41,30.30,30.10,10,10,10,14,8,,0.00,4,,317
2013-1-27,35,25,15,36,23,10,100,84,75,30.40,30.27,30.04,10,8,3,20,10,24,0.15,4,,141
2013-1-28,50,44,37,50,46,36,100,96,87,30.02,29.97,29.93,8,3,0,24,16,32,0.08,8,,212
2013-1-29,60,54,48,57,53,46,100,92,82,29.93,29.72,29.32,10,7,0,26,16,32,0.01,7,Thunderstorm,190
2013-1-30,53,40,24,52,41,19,100,90,74,29.60,29.37,29.23,10,8,2,36,17,44,0.88,7,,244
2013-1-31,24,16,8,19,14,1,93,79,64,30.10,29.85,29.62,10,6,0,34,26,44,0.00,7,,284